Time;durP1;ratioP1;P1;durP2;ratioP2;P2;SDS_P1;SDS_P2;PMS_P1;PMS_P2;Temp;Humidity;BMP_temperature;BMP_pressure;BME280_temperature;BME280_humidity;BME280_pressure;Samples;Min_cycle;Max_cycle;Signal;HPM_P1;HPM_P2
2023/03/10 00:01:17;;;;;;;20.30;11.70;;;0.80;99.90;;;;;;5095516;28;20447;-84
2023/03/10 00:03:44;;;;;;;20.20;11.13;;;0.80;99.90;;;;;;5102086;28;20032;-84
2023/03/10 00:06:12;;;;;;;20.93;11.70;;;0.70;99.90;;;;;;5093943;27;20052;-84
2023/03/10 00:08:38;;;;;;;22.50;12.53;;;0.70;99.90;;;;;;5125143;27;20380;-84
2023/03/10 00:11:03;;;;;;;22.33;12.43;;;0.70;99.90;;;;;;5104834;27;20036;-84
2023/03/10 00:13:29;;;;;;;20.53;11.97;;;0.70;99.90;;;;;;5107188;28;20040;-84
2023/03/10 00:15:54;;;;;;;22.30;12.27;;;0.70;99.90;;;;;;5110094;27;20048;-84
2023/03/10 00:18:20;;;;;;;24.70;13.60;;;0.70;99.90;;;;;;5102691;27;20038;-84
2023/03/10 00:20:45;;;;;;;24.47;13.67;;;0.70;99.90;;;;;;5092555;27;20048;-83
2023/03/10 00:23:11;;;;;;;25.80;13.47;;;0.70;99.90;;;;;;5093679;28;20088;-86
2023/03/10 00:25:38;;;;;;;27.13;14.23;;;0.70;99.90;;;;;;5105958;27;20043;-84
2023/03/10 00:28:03;;;;;;;23.70;13.23;;;0.70;99.90;;;;;;5114835;27;20078;-84
2023/03/10 00:30:29;;;;;;;25.47;14.17;;;0.70;99.90;;;;;;5091332;28;20064;-84
2023/03/10 00:32:54;;;;;;;24.90;14.20;;;0.70;99.90;;;;;;5105713;27;20058;-84
2023/03/10 00:35:20;;;;;;;25.77;13.97;;;0.70;99.90;;;;;;5104084;28;20047;-85
2023/03/10 00:37:45;;;;;;;24.37;13.93;;;0.70;99.90;;;;;;5115562;27;20042;-83
2023/03/10 00:40:13;;;;;;;25.33;13.83;;;0.70;99.90;;;;;;5092584;28;20401;-83
2023/03/10 00:42:39;;;;;;;27.13;15.43;;;0.80;99.90;;;;;;5111766;27;20414;-84
2023/03/10 00:45:05;;;;;;;24.30;14.10;;;0.80;99.90;;;;;;5105028;28;20499;-83
2023/03/10 00:47:31;;;;;;;26.00;14.47;;;0.70;99.90;;;;;;5107746;28;20406;-84
2023/03/10 00:49:57;;;;;;;25.37;14.67;;;0.70;99.90;;;;;;5105371;28;20036;-85
2023/03/10 00:52:22;;;;;;;25.33;14.03;;;0.80;99.90;;;;;;5099737;27;20082;-85
2023/03/10 00:54:48;;;;;;;25.77;13.83;;;0.70;99.90;;;;;;5104229;28;20036;-84
2023/03/10 00:57:13;;;;;;;23.50;13.07;;;0.80;99.90;;;;;;5089310;28;20051;-84
2023/03/10 00:59:39;;;;;;;25.67;14.93;;;0.80;99.90;;;;;;5091603;28;20114;-83
2023/03/10 01:02:04;;;;;;;26.67;14.90;;;0.80;99.90;;;;;;5114675;28;20076;-84
2023/03/10 01:04:30;;;;;;;27.13;15.17;;;0.80;99.90;;;;;;5107888;28;20092;-83
2023/03/10 01:06:55;;;;;;;30.17;16.33;;;0.80;99.90;;;;;;5104317;28;20036;-84
2023/03/10 01:09:21;;;;;;;29.57;15.83;;;0.90;99.90;;;;;;5106663;28;20587;-83
2023/03/10 01:11:47;;;;;;;31.60;16.97;;;0.80;99.90;;;;;;5085969;28;20054;-84
2023/03/10 01:14:16;;;;;;;27.83;16.83;;;0.80;99.90;;;;;;5090472;28;20043;-85
2023/03/10 01:16:42;;;;;;;29.90;16.93;;;0.80;99.90;;;;;;5106357;28;20028;-83
2023/03/10 01:19:08;;;;;;;29.80;16.70;;;0.80;99.90;;;;;;5105451;28;20565;-85
2023/03/10 01:21:35;;;;;;;31.43;17.37;;;0.90;99.90;;;;;;5110868;28;20042;-85
2023/03/10 01:24:02;;;;;;;28.37;16.30;;;0.90;99.90;;;;;;5134826;27;20094;-83
2023/03/10 01:26:28;;;;;;;27.70;16.00;;;0.90;99.90;;;;;;5109690;28;20213;-84
2023/03/10 01:28:54;;;;;;;24.67;14.70;;;0.90;99.90;;;;;;5095923;28;20122;-85
2023/03/10 01:31:20;;;;;;;25.53;14.67;;;0.90;99.90;;;;;;5109753;28;20527;-84
2023/03/10 01:33:45;;;;;;;24.53;14.00;;;0.90;99.90;;;;;;5133199;27;20122;-85
2023/03/10 01:36:14;;;;;;;22.47;12.87;;;0.90;99.90;;;;;;5105406;28;20100;-85
2023/03/10 01:38:41;;;;;;;22.60;12.53;;;0.90;99.90;;;;;;5139751;27;20051;-85
2023/03/10 01:41:07;;;;;;;21.47;13.27;;;0.90;99.90;;;;;;5112275;27;20075;-84
2023/03/10 01:43:35;;;;;;;21.87;13.30;;;0.90;99.90;;;;;;5097142;28;20094;-84
2023/03/10 01:46:02;;;;;;;22.67;12.77;;;1.00;99.90;;;;;;5097905;28;20031;-85
2023/03/10 01:48:30;;;;;;;21.60;12.90;;;1.00;99.90;;;;;;5108479;28;20448;-85
2023/03/10 01:50:56;;;;;;;19.00;11.57;;;1.00;99.90;;;;;;5112904;27;20039;-85
2023/03/10 01:53:24;;;;;;;18.63;11.47;;;1.00;99.90;;;;;;5108501;27;20032;-84
2023/03/10 01:55:54;;;;;;;18.60;11.30;;;1.00;99.90;;;;;;5110036;28;20483;-84
2023/03/10 01:58:23;;;;;;;19.53;11.63;;;1.00;99.90;;;;;;5112211;27;20058;-85
2023/03/10 02:00:51;;;;;;;19.37;11.33;;;1.00;99.90;;;;;;5100095;27;20036;-85
2023/03/10 02:03:25;;;;;;;17.67;10.57;;;1.00;99.90;;;;;;5109817;27;20032;-86
2023/03/10 02:05:54;;;;;;;16.15;10.07;;;1.00;99.90;;;;;;5098055;27;20042;-86
2023/03/10 02:08:22;;;;;;;17.53;9.93;;;1.10;99.90;;;;;;5112395;27;20494;-86
2023/03/10 02:10:49;;;;;;;17.67;10.00;;;1.00;99.90;;;;;;5088798;28;20046;-85
2023/03/10 02:13:15;;;;;;;16.17;9.53;;;1.00;99.90;;;;;;5116247;27;20084;-85
2023/03/10 02:15:41;;;;;;;17.07;9.50;;;1.00;99.90;;;;;;5107099;27;20164;-85
2023/03/10 02:18:10;;;;;;;17.73;10.13;;;1.10;99.90;;;;;;5099156;27;20514;-84
2023/03/10 02:20:55;;;;;;;18.40;10.63;;;1.10;99.90;;;;;;5095471;27;20039;-84
2023/03/10 02:23:40;;;;;;;18.77;10.50;;;1.10;99.90;;;;;;5100626;27;20402;-84
2023/03/10 02:26:20;;;;;;;15.40;9.17;;;1.10;99.90;;;;;;5112302;27;20024;-84
2023/03/10 02:28:47;;;;;;;15.33;9.20;;;1.10;99.90;;;;;;5120540;27;20043;-85
2023/03/10 02:31:14;;;;;;;16.03;9.37;;;1.10;99.90;;;;;;5108692;28;20088;-84
2023/03/10 02:33:40;;;;;;;14.87;8.90;;;1.00;99.90;;;;;;5105862;27;20047;-83
2023/03/10 02:36:16;;;;;;;15.53;9.40;;;1.10;99.90;;;;;;5103899;27;20043;-84
2023/03/10 02:38:41;;;;;;;17.97;9.87;;;1.10;99.90;;;;;;5098558;28;20126;-85
2023/03/10 02:41:27;;;;;;;17.27;10.33;;;1.10;99.90;;;;;;5108632;27;20048;-83
2023/03/10 02:43:54;;;;;;;15.57;9.73;;;1.10;99.90;;;;;;5105310;27;20035;-84
2023/03/10 02:46:21;;;;;;;17.47;9.47;;;1.10;99.90;;;;;;5100303;27;20075;-84
2023/03/10 02:48:47;;;;;;;16.07;9.53;;;1.10;99.90;;;;;;5109108;27;20055;-84
2023/03/10 02:51:17;;;;;;;16.90;10.23;;;1.10;99.90;;;;;;5112158;27;21130;-83
2023/03/10 02:53:43;;;;;;;17.23;10.23;;;1.10;99.90;;;;;;5090264;27;20504;-83
2023/03/10 02:56:08;;;;;;;18.23;10.97;;;1.10;99.90;;;;;;5105604;27;20038;-84
2023/03/10 02:58:35;;;;;;;19.17;11.17;;;1.10;99.90;;;;;;5125941;27;20044;-82
2023/03/10 03:01:01;;;;;;;17.97;11.00;;;1.10;99.90;;;;;;5117112;27;20067;-84
2023/03/10 03:03:26;;;;;;;18.57;10.93;;;1.10;99.90;;;;;;5110795;28;20124;-84
2023/03/10 03:05:52;;;;;;;18.80;11.03;;;1.30;99.90;;;;;;5106319;27;20571;-84
2023/03/10 03:08:18;;;;;;;19.27;10.50;;;1.10;99.90;;;;;;5106272;28;20024;-82
2023/03/10 03:10:44;;;;;;;20.47;11.27;;;1.10;99.90;;;;;;5105751;28;20509;-83
2023/03/10 03:13:10;;;;;;;19.53;12.00;;;1.00;99.90;;;;;;5104103;28;20036;-83
2023/03/10 03:15:36;;;;;;;19.37;11.43;;;1.00;99.90;;;;;;5086831;28;20040;-83
2023/03/10 03:18:03;;;;;;;20.70;12.10;;;1.00;99.90;;;;;;5114493;27;20044;-83
2023/03/10 03:20:29;;;;;;;19.83;11.40;;;1.00;99.90;;;;;;5112678;27;20036;-83
2023/03/10 03:22:56;;;;;;;24.27;13.60;;;1.00;99.90;;;;;;5095042;28;20028;-83
2023/03/10 03:25:22;;;;;;;21.33;11.97;;;1.00;99.90;;;;;;5112892;27;20036;-83
2023/03/10 03:27:49;;;;;;;26.07;13.10;;;1.00;99.90;;;;;;5110724;27;20034;-83
2023/03/10 03:30:18;;;;;;;23.53;12.70;;;0.90;99.90;;;;;;5114798;27;20557;-83
2023/03/10 03:32:43;;;;;;;22.57;12.73;;;0.90;99.90;;;;;;5103731;27;20075;-82
2023/03/10 03:35:17;;;;;;;22.17;12.60;;;0.90;99.90;;;;;;5101829;27;20098;-83
2023/03/10 03:37:42;;;;;;;22.02;13.10;;;0.90;99.90;;;;;;5143611;27;20473;-82
2023/03/10 03:40:12;;;;;;;26.57;14.63;;;0.80;99.90;;;;;;5106928;28;20054;-83
2023/03/10 03:42:42;;;;;;;27.97;15.03;;;0.90;99.90;;;;;;5104801;28;20380;-83
2023/03/10 03:45:09;;;;;;;25.90;14.60;;;0.90;99.90;;;;;;5113988;27;20040;-82
2023/03/10 03:47:34;;;;;;;27.80;14.67;;;0.90;99.90;;;;;;5104344;28;20036;-82
2023/03/10 03:50:00;;;;;;;26.60;14.30;;;0.90;99.90;;;;;;5093965;28;20039;-84
2023/03/10 03:52:26;;;;;;;28.97;15.83;;;0.90;99.90;;;;;;5142306;27;20044;-83
2023/03/10 03:54:52;;;;;;;28.60;14.80;;;0.90;99.90;;;;;;5085271;28;20126;-84
2023/03/10 03:57:17;;;;;;;28.10;15.50;;;0.90;99.90;;;;;;5110806;28;20039;-83
2023/03/10 03:59:43;;;;;;;32.10;16.47;;;0.90;99.90;;;;;;5097717;28;20047;-84
2023/03/10 04:02:08;;;;;;;27.37;15.40;;;0.90;99.90;;;;;;5108440;27;20113;-83
2023/03/10 04:04:34;;;;;;;29.63;15.93;;;0.90;99.90;;;;;;5111927;27;20043;-83
2023/03/10 04:07:00;;;;;;;27.27;15.20;;;0.90;99.90;;;;;;5087784;28;20129;-84
2023/03/10 04:09:26;;;;;;;29.43;15.80;;;0.90;99.90;;;;;;5139748;27;20036;-83
2023/03/10 04:11:51;;;;;;;29.07;16.40;;;0.90;99.90;;;;;;5109742;27;20054;-83
2023/03/10 04:14:17;;;;;;;29.30;16.97;;;0.90;99.90;;;;;;5107281;27;20502;-83
2023/03/10 04:16:43;;;;;;;30.00;16.10;;;0.90;99.90;;;;;;5110085;27;20077;-83
2023/03/10 04:19:09;;;;;;;33.40;16.63;;;0.90;99.90;;;;;;5091739;28;20472;-84
2023/03/10 04:21:35;;;;;;;29.03;15.97;;;0.90;99.90;;;;;;5105700;27;20078;-84
2023/03/10 04:24:01;;;;;;;29.07;15.77;;;0.90;99.90;;;;;;5109571;28;20678;-83
2023/03/10 04:26:27;;;;;;;29.40;15.77;;;0.90;99.90;;;;;;5116353;27;20506;-84
2023/03/10 04:28:53;;;;;;;27.10;14.67;;;0.90;99.90;;;;;;5103956;28;20130;-83
2023/03/10 04:31:18;;;;;;;27.50;15.47;;;0.90;99.90;;;;;;5088696;28;20135;-83
2023/03/10 04:33:44;;;;;;;30.07;15.13;;;0.90;99.90;;;;;;5135814;27;20134;-83
2023/03/10 04:36:10;;;;;;;28.07;14.50;;;0.80;99.90;;;;;;5093071;28;20043;-83
2023/03/10 04:38:36;;;;;;;27.77;14.83;;;0.80;99.90;;;;;;5102523;28;20051;-83
2023/03/10 04:41:03;;;;;;;28.17;15.57;;;0.80;99.90;;;;;;5113506;28;20078;-83
2023/03/10 04:43:30;;;;;;;28.40;14.80;;;0.80;99.90;;;;;;5107527;28;20039;-82
2023/03/10 04:45:55;;;;;;;28.07;15.20;;;0.70;99.90;;;;;;5107257;28;20384;-82
2023/03/10 04:48:22;;;;;;;28.03;15.67;;;0.70;99.90;;;;;;5112078;28;20042;-81
2023/03/10 04:50:59;;;;;;;27.60;14.77;;;0.60;99.90;;;;;;5107957;28;20067;-81
2023/03/10 04:53:25;;;;;;;28.40;16.07;;;0.60;99.90;;;;;;5109237;28;20390;-81
2023/03/10 04:55:50;;;;;;;31.27;16.77;;;0.60;99.90;;;;;;5107655;28;20040;-80
2023/03/10 04:58:17;;;;;;;31.60;16.23;;;0.60;99.90;;;;;;5084370;28;20036;-81
2023/03/10 05:00:43;;;;;;;30.97;16.23;;;0.60;99.90;;;;;;5110211;28;20051;-81
2023/03/10 05:03:09;;;;;;;31.97;16.73;;;0.60;99.90;;;;;;5112208;27;20777;-82
2023/03/10 05:05:35;;;;;;;33.10;16.13;;;0.50;99.90;;;;;;5103536;28;20118;-82
2023/03/10 05:08:00;;;;;;;35.43;17.33;;;0.50;99.90;;;;;;5111209;28;20498;-83
2023/03/10 05:10:26;;;;;;;32.47;16.33;;;0.50;99.90;;;;;;5095458;28;20043;-83
2023/03/10 05:12:52;;;;;;;34.63;18.17;;;0.50;99.90;;;;;;5092374;28;20031;-82
2023/03/10 05:15:17;;;;;;;35.20;17.97;;;0.50;99.90;;;;;;5109462;27;20110;-82
2023/03/10 05:17:43;;;;;;;36.63;17.43;;;0.50;99.90;;;;;;5112654;27;20100;-82
2023/03/10 05:20:09;;;;;;;39.07;18.23;;;0.50;99.90;;;;;;5103458;28;20152;-82
2023/03/10 05:22:36;;;;;;;38.37;17.90;;;0.50;99.90;;;;;;5115059;27;20455;-82
2023/03/10 05:25:02;;;;;;;42.50;18.97;;;0.50;99.90;;;;;;5106943;28;20031;-82
2023/03/10 05:27:28;;;;;;;37.13;18.47;;;0.40;99.90;;;;;;5108442;28;20043;-83
2023/03/10 05:29:53;;;;;;;41.13;18.80;;;0.40;99.90;;;;;;5140499;27;20044;-82
2023/03/10 05:32:19;;;;;;;41.17;19.07;;;0.40;99.90;;;;;;5109606;28;20408;-82
2023/03/10 05:34:44;;;;;;;42.07;20.33;;;0.40;99.90;;;;;;5107848;28;20036;-83
2023/03/10 05:37:10;;;;;;;40.97;20.13;;;0.40;99.90;;;;;;5100880;28;20035;-83
2023/03/10 05:39:35;;;;;;;43.97;21.07;;;0.40;99.90;;;;;;5108640;27;20039;-83
2023/03/10 05:42:01;;;;;;;44.07;21.30;;;0.40;99.90;;;;;;5123615;27;20289;-84
2023/03/10 05:44:26;;;;;;;47.80;22.10;;;0.40;99.90;;;;;;5114837;27;20529;-83
2023/03/10 05:46:52;;;;;;;51.00;22.00;;;0.40;99.90;;;;;;5108618;28;20516;-83
2023/03/10 05:49:17;;;;;;;47.70;22.40;;;0.40;99.90;;;;;;5107288;28;20043;-83
2023/03/10 05:51:43;;;;;;;52.87;23.67;;;0.40;99.90;;;;;;5112950;27;20038;-83
2023/03/10 05:54:08;;;;;;;49.70;23.47;;;0.40;99.90;;;;;;5108232;27;20054;-84
2023/03/10 05:56:34;;;;;;;51.83;22.97;;;0.40;99.90;;;;;;5108639;28;20494;-84
2023/03/10 05:59:00;;;;;;;55.00;24.20;;;0.40;99.90;;;;;;5104679;28;20032;-84
2023/03/10 06:01:26;;;;;;;49.77;24.20;;;0.40;99.90;;;;;;5110379;27;20537;-84
2023/03/10 06:03:51;;;;;;;50.07;22.30;;;0.40;99.90;;;;;;5114076;27;20027;-83
2023/03/10 06:06:17;;;;;;;44.50;21.40;;;0.40;99.90;;;;;;5112663;28;20040;-84
2023/03/10 06:08:43;;;;;;;48.63;22.37;;;0.40;99.90;;;;;;5109114;28;20118;-85
2023/03/10 06:11:08;;;;;;;48.93;22.37;;;0.40;99.90;;;;;;5107569;28;20123;-84
2023/03/10 06:13:34;;;;;;;49.13;20.90;;;0.40;99.90;;;;;;5108950;27;20129;-85
2023/03/10 06:16:02;;;;;;;40.40;20.07;;;0.30;99.90;;;;;;5106422;28;20039;-85
2023/03/10 06:18:28;;;;;;;39.77;18.60;;;0.40;99.90;;;;;;5110631;28;20043;-85
2023/03/10 06:20:54;;;;;;;38.97;18.40;;;0.40;99.90;;;;;;5096865;28;20240;-85
2023/03/10 06:23:21;;;;;;;39.40;19.00;;;0.40;99.90;;;;;;5112019;28;20071;-85
2023/03/10 06:26:04;;;;;;;33.80;16.83;;;0.30;99.90;;;;;;5104548;28;20041;-85
2023/03/10 06:28:31;;;;;;;36.47;16.50;;;0.40;99.90;;;;;;5111571;28;20039;-85
2023/03/10 06:30:58;;;;;;;34.97;16.73;;;0.40;99.90;;;;;;5113321;27;20076;-85
2023/03/10 06:33:25;;;;;;;30.97;15.90;;;0.40;99.90;;;;;;5087411;28;20051;-85
2023/03/10 06:35:50;;;;;;;32.37;15.67;;;0.40;99.90;;;;;;5137820;27;20517;-86
2023/03/10 06:38:16;;;;;;;28.77;14.53;;;0.40;99.90;;;;;;5111712;27;20032;-85
2023/03/10 06:40:41;;;;;;;30.80;15.73;;;0.40;99.90;;;;;;5111732;28;20563;-85
2023/03/10 06:43:07;;;;;;;29.70;14.67;;;0.40;99.90;;;;;;5110177;28;20090;-85
2023/03/10 06:45:32;;;;;;;28.73;14.23;;;0.40;99.90;;;;;;5095564;28;20473;-86
2023/03/10 06:47:58;;;;;;;30.37;13.67;;;0.40;99.90;;;;;;5085968;28;20040;-85
2023/03/10 06:50:23;;;;;;;27.20;14.03;;;0.40;99.90;;;;;;5109456;28;20035;-84
2023/03/10 06:52:49;;;;;;;27.60;13.50;;;0.40;99.90;;;;;;5105602;28;20043;-85
2023/03/10 06:55:15;;;;;;;28.83;13.07;;;0.40;99.90;;;;;;5109887;28;20490;-85
2023/03/10 06:57:41;;;;;;;28.73;14.03;;;0.40;99.90;;;;;;5104617;28;20544;-85
2023/03/10 07:00:10;;;;;;;25.40;12.93;;;0.50;99.90;;;;;;5112133;28;20035;-84
2023/03/10 07:02:37;;;;;;;25.00;13.17;;;0.40;99.90;;;;;;5094525;28;20054;-84
2023/03/10 07:05:04;;;;;;;27.83;14.13;;;0.40;99.90;;;;;;5106514;27;20040;-84
2023/03/10 07:07:30;;;;;;;28.40;14.20;;;0.50;99.90;;;;;;5092874;28;20093;-84
2023/03/10 07:09:56;;;;;;;25.63;12.60;;;0.50;99.90;;;;;;5108580;28;20044;-84
2023/03/10 07:12:22;;;;;;;27.20;13.53;;;0.50;99.90;;;;;;5106609;28;20039;-85
2023/03/10 07:14:48;;;;;;;26.57;13.47;;;0.50;99.90;;;;;;5101105;28;20396;-83
2023/03/10 07:17:14;;;;;;;26.57;13.77;;;0.50;99.90;;;;;;5106013;28;20114;-84
2023/03/10 07:19:39;;;;;;;27.77;13.73;;;0.60;99.90;;;;;;5110790;28;20391;-85
2023/03/10 07:22:05;;;;;;;27.53;14.33;;;0.60;99.90;;;;;;5110084;27;20097;-84
2023/03/10 07:24:30;;;;;;;31.63;15.00;;;0.60;99.90;;;;;;5112266;27;20042;-83
2023/03/10 07:26:59;;;;;;;30.13;14.63;;;0.60;99.90;;;;;;5107955;28;20431;-83
2023/03/10 07:29:24;;;;;;;28.73;13.90;;;0.60;99.90;;;;;;5103757;28;20028;-83
2023/03/10 07:31:50;;;;;;;29.90;14.30;;;0.60;99.90;;;;;;5112018;28;20035;-83
2023/03/10 07:34:15;;;;;;;30.43;15.17;;;0.60;99.90;;;;;;5105114;28;20043;-83
2023/03/10 07:36:41;;;;;;;28.10;14.27;;;0.60;99.90;;;;;;5111218;28;20047;-83
2023/03/10 07:39:07;;;;;;;29.23;14.97;;;0.70;99.90;;;;;;5106341;28;20040;-83
2023/03/10 07:41:33;;;;;;;25.77;14.23;;;0.70;99.90;;;;;;5109503;28;20042;-84
2023/03/10 07:43:58;;;;;;;28.20;15.13;;;0.70;99.90;;;;;;5112356;28;20070;-84
2023/03/10 07:46:24;;;;;;;29.40;14.63;;;0.70;99.90;;;;;;5102991;28;20118;-84
2023/03/10 07:48:51;;;;;;;28.10;14.40;;;0.70;99.90;;;;;;5089102;28;20032;-84
2023/03/10 07:51:17;;;;;;;27.53;14.13;;;0.70;99.90;;;;;;5111611;28;20044;-84
2023/03/10 07:53:42;;;;;;;30.00;14.97;;;0.70;99.90;;;;;;5103246;28;20058;-84
2023/03/10 07:56:11;;;;;;;28.93;15.27;;;0.70;99.90;;;;;;5108219;28;20048;-84
2023/03/10 07:58:37;;;;;;;32.13;15.33;;;0.70;99.90;;;;;;5108547;28;20036;-84
2023/03/10 08:01:04;;;;;;;28.83;15.20;;;0.70;99.90;;;;;;5104973;28;20043;-84
2023/03/10 08:03:31;;;;;;;34.27;16.80;;;0.70;99.90;;;;;;5104001;28;20115;-83
2023/03/10 08:05:58;;;;;;;31.33;16.00;;;0.70;99.90;;;;;;5104809;28;20042;-85
2023/03/10 08:08:25;;;;;;;33.57;15.97;;;0.70;99.90;;;;;;5111012;28;20040;-82
2023/03/10 08:11:03;;;;;;;33.70;16.60;;;0.70;99.90;;;;;;5110261;28;20402;-82
2023/03/10 08:13:29;;;;;;;30.70;15.57;;;0.70;99.90;;;;;;5105649;28;20075;-83
2023/03/10 08:15:56;;;;;;;32.63;16.80;;;0.70;99.90;;;;;;5108261;28;20526;-82
2023/03/10 08:18:24;;;;;;;30.83;16.53;;;0.70;99.90;;;;;;5107396;28;20054;-82
2023/03/10 08:20:53;;;;;;;35.27;16.93;;;0.70;99.90;;;;;;5112309;28;20058;-82
2023/03/10 08:23:18;;;;;;;29.33;15.57;;;0.70;99.90;;;;;;5110537;28;20040;-82
2023/03/10 08:25:44;;;;;;;30.53;15.83;;;0.70;99.90;;;;;;5105977;28;20045;-80
2023/03/10 08:28:09;;;;;;;33.43;16.67;;;0.80;99.90;;;;;;5103967;28;20027;-80
2023/03/10 08:30:38;;;;;;;33.47;17.07;;;0.80;99.90;;;;;;5091648;28;20042;-81
2023/03/10 08:33:06;;;;;;;33.30;17.37;;;0.80;99.90;;;;;;5111483;28;20043;-81
2023/03/10 08:35:32;;;;;;;31.00;17.10;;;0.90;99.90;;;;;;5111436;28;20456;-80
2023/03/10 08:37:57;;;;;;;32.77;16.50;;;0.80;99.90;;;;;;5111818;28;20044;-81
2023/03/10 08:40:23;;;;;;;30.90;16.43;;;0.90;99.90;;;;;;5094034;28;20487;-79
2023/03/10 08:42:49;;;;;;;30.33;16.40;;;0.90;99.90;;;;;;5105011;28;20040;-80
2023/03/10 08:45:14;;;;;;;30.37;16.17;;;0.90;99.90;;;;;;5083836;28;20039;-79
2023/03/10 08:47:40;;;;;;;29.67;16.53;;;0.90;99.90;;;;;;5103571;28;20036;-80
2023/03/10 08:50:07;;;;;;;32.97;17.90;;;1.00;99.90;;;;;;5104222;28;20039;-79
2023/03/10 08:52:32;;;;;;;33.67;17.20;;;0.90;99.90;;;;;;5107043;28;20407;-80
2023/03/10 08:54:58;;;;;;;32.10;16.93;;;0.90;99.90;;;;;;5108828;28;20055;-80
2023/03/10 08:57:23;;;;;;;34.20;17.07;;;0.90;99.90;;;;;;5109822;28;20038;-80
2023/03/10 08:59:50;;;;;;;31.83;16.30;;;0.90;99.90;;;;;;5114435;28;20533;-80
2023/03/10 09:02:16;;;;;;;32.07;17.37;;;0.90;99.90;;;;;;5093969;28;20036;-80
2023/03/10 09:04:42;;;;;;;33.40;16.67;;;0.90;99.90;;;;;;5106197;28;20496;-80
2023/03/10 09:07:07;;;;;;;32.77;17.17;;;0.90;99.90;;;;;;5108300;28;20215;-79
2023/03/10 09:09:33;;;;;;;35.13;18.03;;;0.90;99.90;;;;;;5107348;28;20101;-80
2023/03/10 09:11:59;;;;;;;35.50;17.97;;;0.90;99.90;;;;;;5114645;28;20047;-80
2023/03/10 09:14:24;;;;;;;37.00;17.87;;;0.90;99.90;;;;;;5106650;28;20127;-80
2023/03/10 09:16:50;;;;;;;31.60;17.00;;;0.90;99.90;;;;;;5114109;28;20038;-80
2023/03/10 09:19:15;;;;;;;34.23;17.73;;;0.90;99.90;;;;;;5107227;28;20123;-81
2023/03/10 09:21:41;;;;;;;35.20;16.90;;;0.90;99.90;;;;;;5143593;27;20075;-80
2023/03/10 09:24:08;;;;;;;31.70;17.33;;;0.90;99.90;;;;;;5111665;28;20081;-80
2023/03/10 09:26:33;;;;;;;34.53;17.67;;;0.90;99.90;;;;;;5112506;28;20035;-80
2023/03/10 09:29:00;;;;;;;27.97;16.17;;;0.90;99.90;;;;;;5110097;28;20036;-80
2023/03/10 09:31:30;;;;;;;28.57;15.00;;;0.90;99.90;;;;;;5111567;28;20039;-80
2023/03/10 09:33:56;;;;;;;33.73;16.97;;;0.90;99.90;;;;;;5104745;28;20039;-81
2023/03/10 09:36:22;;;;;;;32.10;16.80;;;1.10;99.90;;;;;;5110950;28;20043;-81
2023/03/10 09:38:47;;;;;;;27.70;15.07;;;1.00;99.90;;;;;;5089277;28;20529;-80
2023/03/10 09:41:41;;;;;;;30.07;16.10;;;1.00;99.90;;;;;;5105807;28;20040;-81
2023/03/10 09:44:33;;;;;;;31.00;16.80;;;1.10;99.90;;;;;;5106811;28;20043;-81
2023/03/10 09:47:08;;;;;;;30.77;15.87;;;1.10;99.90;;;;;;5140988;27;20047;-81
2023/03/10 09:49:42;;;;;;;31.83;16.50;;;1.20;99.90;;;;;;5112645;28;20073;-81
2023/03/10 09:52:27;;;;;;;31.33;16.40;;;1.10;99.90;;;;;;5109605;28;20097;-81
2023/03/10 09:54:59;;;;;;;28.83;15.63;;;1.10;99.90;;;;;;5105892;28;20385;-81
2023/03/10 09:57:25;;;;;;;30.83;15.90;;;1.10;99.90;;;;;;5145723;27;20047;-81
2023/03/10 09:59:57;;;;;;;27.80;15.27;;;1.10;99.90;;;;;;5110381;28;20491;-80
2023/03/10 10:02:29;;;;;;;29.93;16.07;;;1.00;99.90;;;;;;5095166;28;20039;-79
2023/03/10 10:04:57;;;;;;;29.33;15.67;;;1.00;99.90;;;;;;5091162;28;20046;-80
2023/03/10 10:07:26;;;;;;;29.57;15.13;;;1.00;99.90;;;;;;5113912;28;20054;-80
2023/03/10 10:10:29;;;;;;;29.63;16.07;;;1.00;99.90;;;;;;5111708;28;20038;-80
2023/03/10 10:13:00;;;;;;;31.00;14.80;;;1.00;99.90;;;;;;5015680;28;20045;-80
2023/03/10 10:15:29;;;;;;;25.03;13.63;;;1.10;99.90;;;;;;4999466;28;20050;-81
2023/03/10 10:18:22;;;;;;;28.40;14.97;;;1.10;99.90;;;;;;5091223;27;20051;-80
2023/03/10 10:20:52;;;;;;;27.70;14.30;;;1.10;99.90;;;;;;5103788;28;20042;-80
2023/03/10 10:23:20;;;;;;;27.00;14.30;;;1.10;99.90;;;;;;5136345;27;20035;-81
2023/03/10 10:25:46;;;;;;;30.53;15.27;;;1.10;99.90;;;;;;5087038;28;20028;-81
2023/03/10 10:28:24;;;;;;;27.67;14.27;;;1.00;99.90;;;;;;5136705;27;20058;-81
2023/03/10 10:30:49;;;;;;;27.43;14.07;;;1.00;99.90;;;;;;5104025;28;20118;-80
2023/03/10 10:33:15;;;;;;;25.13;14.43;;;1.00;99.90;;;;;;5109281;28;20139;-81
2023/03/10 10:35:45;;;;;;;28.33;13.80;;;1.00;99.90;;;;;;5106124;28;20054;-81
2023/03/10 10:38:10;;;;;;;26.27;14.23;;;1.00;99.90;;;;;;5093822;28;20044;-81
2023/03/10 10:41:14;;;;;;;28.03;14.67;;;1.00;99.90;;;;;;5110043;28;20083;-81
2023/03/10 10:43:44;;;;;;;26.23;13.88;;;1.00;99.90;;;;;;5092499;28;20050;-82
2023/03/10 10:46:12;;;;;;;27.53;14.40;;;1.00;99.90;;;;;;5107110;28;20034;-82
2023/03/10 10:48:39;;;;;;;26.37;13.90;;;1.00;99.90;;;;;;5088694;28;20407;-81
2023/03/10 10:51:23;;;;;;;26.77;14.33;;;0.90;99.90;;;;;;5113549;28;20118;-81
2023/03/10 10:53:49;;;;;;;30.25;15.23;;;1.00;99.90;;;;;;5108771;28;20039;-81
2023/03/10 10:56:17;;;;;;;28.07;14.40;;;1.00;99.90;;;;;;5109483;28;20040;-81
2023/03/10 10:59:17;;;;;;;27.77;14.27;;;1.00;99.90;;;;;;5143305;27;20048;-81
2023/03/10 11:01:52;;;;;;;29.50;16.00;;;1.00;99.90;;;;;;5105424;28;20040;-82
2023/03/10 11:04:18;;;;;;;28.03;14.43;;;1.00;99.90;;;;;;5112566;28;20054;-82
2023/03/10 11:06:44;;;;;;;32.70;16.53;;;1.00;99.90;;;;;;5107985;28;20380;-83
2023/03/10 11:09:20;;;;;;;29.00;15.30;;;1.00;99.90;;;;;;5111874;28;20038;-82
2023/03/10 11:12:12;;;;;;;28.83;15.13;;;1.00;99.90;;;;;;5143613;27;20070;-83
2023/03/10 11:14:48;;;;;;;28.67;15.00;;;1.00;99.90;;;;;;5124977;27;20050;-83
2023/03/10 11:17:32;;;;;;;30.93;16.23;;;1.00;99.90;;;;;;5108297;28;20043;-83
2023/03/10 11:20:23;;;;;;;31.42;15.63;;;1.00;99.90;;;;;;5086533;28;20177;-83
2023/03/10 11:23:03;;;;;;;29.00;15.33;;;1.00;99.90;;;;;;5103402;28;20497;-83
2023/03/10 11:25:38;;;;;;;30.10;15.40;;;1.00;99.90;;;;;;5143331;27;20039;-83
2023/03/10 11:28:12;;;;;;;28.47;14.97;;;1.00;99.90;;;;;;5122961;27;20528;-83
2023/03/10 11:30:47;;;;;;;31.73;15.53;;;1.00;99.90;;;;;;5104134;28;20047;-83
2023/03/10 11:33:30;;;;;;;30.17;15.63;;;1.00;99.90;;;;;;5105599;28;20418;-82
2023/03/10 11:36:04;;;;;;;28.60;14.73;;;1.00;99.90;;;;;;5107832;28;20173;-83
2023/03/10 11:38:38;;;;;;;27.77;14.97;;;1.00;99.90;;;;;;5106329;28;20047;-81
2023/03/10 11:41:12;;;;;;;29.07;15.20;;;1.00;99.90;;;;;;5089266;28;20036;-82
2023/03/10 11:44:02;;;;;;;28.27;15.10;;;1.00;99.90;;;;;;5140690;27;20403;-81
2023/03/10 11:46:38;;;;;;;28.03;14.97;;;1.00;99.90;;;;;;5104850;28;20035;-81
2023/03/10 11:49:11;;;;;;;25.70;14.50;;;1.00;99.90;;;;;;5108146;28;20111;-82
2023/03/10 11:51:48;;;;;;;29.17;15.00;;;1.00;99.90;;;;;;5111117;28;20108;-81
2023/03/10 11:54:32;;;;;;;29.40;15.80;;;1.00;99.90;;;;;;5108576;28;20488;-81
2023/03/10 11:57:01;;;;;;;27.40;14.57;;;1.00;99.90;;;;;;5102705;28;20409;-81
2023/03/10 11:59:29;;;;;;;25.17;13.67;;;1.00;99.90;;;;;;5100991;28;20035;-81
2023/03/10 12:02:20;;;;;;;28.00;15.47;;;1.00;99.90;;;;;;5109618;28;20043;-81
2023/03/10 12:05:07;;;;;;;29.47;15.13;;;1.10;99.90;;;;;;5138593;27;20031;-81
2023/03/10 12:07:37;;;;;;;28.67;15.50;;;1.10;99.90;;;;;;5107245;28;20040;-81
2023/03/10 12:10:14;;;;;;;27.57;15.03;;;1.10;99.90;;;;;;5105776;28;20092;-81
2023/03/10 12:12:42;;;;;;;31.57;15.53;;;1.10;99.90;;;;;;5100293;28;20036;-81
2023/03/10 12:15:25;;;;;;;33.33;16.37;;;1.10;99.90;;;;;;5100209;28;20050;-81
2023/03/10 12:17:53;;;;;;;27.70;14.43;;;1.10;99.90;;;;;;5102513;28;20549;-81
2023/03/10 12:20:18;;;;;;;28.30;15.07;;;1.20;99.90;;;;;;5110464;28;20043;-82
2023/03/10 12:22:52;;;;;;;25.93;14.40;;;1.20;99.90;;;;;;5110215;28;20042;-81
2023/03/10 12:25:27;;;;;;;;;;;1.20;99.90;;;;;;5104714;28;20042;-81
2023/03/10 12:28:23;;;;;;;28.87;14.60;;;1.20;99.90;;;;;;5096528;28;20019;-81
2023/03/10 12:31:27;;;;;;;28.07;14.37;;;1.20;99.90;;;;;;5099795;28;20061;-80
2023/03/10 12:34:06;;;;;;;;;;;1.20;99.90;;;;;;5088298;28;20129;-80
2023/03/10 12:36:38;;;;;;;24.53;13.27;;;1.20;99.90;;;;;;5091769;28;19919;-80
2023/03/10 12:39:23;;;;;;;27.43;14.57;;;1.60;99.90;;;;;;5100639;28;20171;-81
2023/03/10 12:41:55;;;;;;;26.47;14.30;;;1.20;99.90;;;;;;5100555;28;20043;-80
2023/03/10 12:44:29;;;;;;;26.20;14.30;;;1.30;99.90;;;;;;5103527;28;20071;-80
2023/03/10 12:47:08;;;;;;;28.13;14.77;;;1.30;99.90;;;;;;5104936;28;20603;-80